sensor_id;sensor_type;location;lat;lon;timestamp;temperature;humidity
24091;DHT22;12272;52.426;17.100;2023-07-31T00:04:21;18.80;98.00
24091;DHT22;12272;52.426;17.100;2023-07-31T00:09:24;18.70;97.70
24091;DHT22;12272;52.426;17.100;2023-07-31T00:14:26;18.60;97.80
24091;DHT22;12272;52.426;17.100;2023-07-31T00:19:29;18.50;99.90
24091;DHT22;12272;52.426;17.100;2023-07-31T00:24:31;18.40;99.90
24091;DHT22;12272;52.426;17.100;2023-07-31T00:29:34;18.20;99.90
24091;DHT22;12272;52.426;17.100;2023-07-31T00:34:37;17.90;99.90
24091;DHT22;12272;52.426;17.100;2023-07-31T00:39:39;17.80;99.90
24091;DHT22;12272;52.426;17.100;2023-07-31T00:44:42;17.80;99.90
24091;DHT22;12272;52.426;17.100;2023-07-31T00:49:45;17.70;99.90
24091;DHT22;12272;52.426;17.100;2023-07-31T00:54:49;17.60;99.90
24091;DHT22;12272;52.426;17.100;2023-07-31T00:59:51;17.60;99.90
24091;DHT22;12272;52.426;17.100;2023-07-31T01:04:55;17.30;99.90
24091;DHT22;12272;52.426;17.100;2023-07-31T01:15:13;17.10;99.90
24091;DHT22;12272;52.426;17.100;2023-07-31T01:20:24;16.90;99.90
24091;DHT22;12272;52.426;17.100;2023-07-31T01:31:03;16.80;99.90
24091;DHT22;12272;52.426;17.100;2023-07-31T01:36:09;16.80;99.90
24091;DHT22;12272;52.426;17.100;2023-07-31T01:41:12;17.00;99.90
24091;DHT22;12272;52.426;17.100;2023-07-31T01:46:15;17.10;99.90
24091;DHT22;12272;52.426;17.100;2023-07-31T01:51:18;17.10;99.90
24091;DHT22;12272;52.426;17.100;2023-07-31T01:56:21;17.00;99.90
24091;DHT22;12272;52.426;17.100;2023-07-31T02:01:23;16.90;99.90
24091;DHT22;12272;52.426;17.100;2023-07-31T02:06:26;16.80;99.90
24091;DHT22;12272;52.426;17.100;2023-07-31T02:11:29;16.70;99.90
24091;DHT22;12272;52.426;17.100;2023-07-31T02:16:32;16.80;99.90
24091;DHT22;12272;52.426;17.100;2023-07-31T02:21:35;16.80;99.90
24091;DHT22;12272;52.426;17.100;2023-07-31T02:26:38;16.70;99.90
24091;DHT22;12272;52.426;17.100;2023-07-31T02:31:41;16.50;99.90
24091;DHT22;12272;52.426;17.100;2023-07-31T02:36:43;16.40;99.90
24091;DHT22;12272;52.426;17.100;2023-07-31T02:41:46;16.40;99.90
24091;DHT22;12272;52.426;17.100;2023-07-31T02:46:49;16.30;99.90
24091;DHT22;12272;52.426;17.100;2023-07-31T02:51:51;16.30;99.90
24091;DHT22;12272;52.426;17.100;2023-07-31T02:56:54;16.40;99.90
24091;DHT22;12272;52.426;17.100;2023-07-31T03:01:56;16.50;99.90
24091;DHT22;12272;52.426;17.100;2023-07-31T03:07:00;16.50;99.90
24091;DHT22;12272;52.426;17.100;2023-07-31T03:12:03;16.50;99.90
24091;DHT22;12272;52.426;17.100;2023-07-31T03:17:06;16.50;99.90
24091;DHT22;12272;52.426;17.100;2023-07-31T03:22:08;16.50;99.90
24091;DHT22;12272;52.426;17.100;2023-07-31T03:27:11;16.40;99.90
24091;DHT22;12272;52.426;17.100;2023-07-31T03:32:13;16.40;99.90
24091;DHT22;12272;52.426;17.100;2023-07-31T03:37:16;16.30;99.90
24091;DHT22;12272;52.426;17.100;2023-07-31T03:42:18;16.00;99.90
24091;DHT22;12272;52.426;17.100;2023-07-31T03:47:21;15.70;99.90
24091;DHT22;12272;52.426;17.100;2023-07-31T03:52:23;15.60;99.90
24091;DHT22;12272;52.426;17.100;2023-07-31T03:57:27;15.60;99.90
24091;DHT22;12272;52.426;17.100;2023-07-31T04:02:29;15.70;99.90
24091;DHT22;12272;52.426;17.100;2023-07-31T04:07:32;15.80;99.90
24091;DHT22;12272;52.426;17.100;2023-07-31T04:12:35;15.80;99.90
24091;DHT22;12272;52.426;17.100;2023-07-31T04:17:37;16.00;99.90
24091;DHT22;12272;52.426;17.100;2023-07-31T04:22:40;16.20;99.90
24091;DHT22;12272;52.426;17.100;2023-07-31T04:27:42;16.40;99.90
24091;DHT22;12272;52.426;17.100;2023-07-31T04:32:45;16.50;99.90
24091;DHT22;12272;52.426;17.100;2023-07-31T04:37:47;16.70;99.90
24091;DHT22;12272;52.426;17.100;2023-07-31T04:42:51;16.80;99.90
24091;DHT22;12272;52.426;17.100;2023-07-31T04:47:53;16.90;99.90
24091;DHT22;12272;52.426;17.100;2023-07-31T04:52:56;16.90;99.90
24091;DHT22;12272;52.426;17.100;2023-07-31T04:57:59;17.00;99.90
24091;DHT22;12272;52.426;17.100;2023-07-31T05:03:02;17.00;99.90
24091;DHT22;12272;52.426;17.100;2023-07-31T05:08:05;16.90;99.90
24091;DHT22;12272;52.426;17.100;2023-07-31T05:13:08;16.90;99.90
24091;DHT22;12272;52.426;17.100;2023-07-31T05:18:10;16.80;99.90
24091;DHT22;12272;52.426;17.100;2023-07-31T05:23:13;16.80;99.90
24091;DHT22;12272;52.426;17.100;2023-07-31T05:28:15;16.70;99.90
24091;DHT22;12272;52.426;17.100;2023-07-31T05:33:18;16.80;99.90
24091;DHT22;12272;52.426;17.100;2023-07-31T05:38:20;17.00;99.90
24091;DHT22;12272;52.426;17.100;2023-07-31T05:43:23;17.10;99.90
24091;DHT22;12272;52.426;17.100;2023-07-31T05:48:26;17.30;99.90
24091;DHT22;12272;52.426;17.100;2023-07-31T05:53:28;17.40;99.90
24091;DHT22;12272;52.426;17.100;2023-07-31T05:58:31;17.70;99.90
24091;DHT22;12272;52.426;17.100;2023-07-31T06:03:33;17.80;99.90
24091;DHT22;12272;52.426;17.100;2023-07-31T06:08:36;18.10;99.90
24091;DHT22;12272;52.426;17.100;2023-07-31T06:13:38;18.20;99.90
24091;DHT22;12272;52.426;17.100;2023-07-31T06:18:45;18.40;99.90
24091;DHT22;12272;52.426;17.100;2023-07-31T06:23:47;18.60;99.90
24091;DHT22;12272;52.426;17.100;2023-07-31T06:28:50;18.80;99.90
24091;DHT22;12272;52.426;17.100;2023-07-31T06:33:52;18.90;99.90
24091;DHT22;12272;52.426;17.100;2023-07-31T06:38:55;19.00;99.90
24091;DHT22;12272;52.426;17.100;2023-07-31T06:43:57;19.10;99.90
24091;DHT22;12272;52.426;17.100;2023-07-31T06:49:00;19.30;99.90
24091;DHT22;12272;52.426;17.100;2023-07-31T06:54:03;19.50;99.80
24091;DHT22;12272;52.426;17.100;2023-07-31T06:59:05;19.70;99.70
24091;DHT22;12272;52.426;17.100;2023-07-31T07:04:08;19.80;99.10
24091;DHT22;12272;52.426;17.100;2023-07-31T07:09:10;19.90;98.70
24091;DHT22;12272;52.426;17.100;2023-07-31T07:14:13;19.90;96.60
24091;DHT22;12272;52.426;17.100;2023-07-31T07:19:15;19.90;97.20
24091;DHT22;12272;52.426;17.100;2023-07-31T07:24:18;20.00;97.30
24091;DHT22;12272;52.426;17.100;2023-07-31T07:29:20;20.20;97.00
24091;DHT22;12272;52.426;17.100;2023-07-31T07:34:27;20.30;97.50
24091;DHT22;12272;52.426;17.100;2023-07-31T07:39:30;20.40;93.50
24091;DHT22;12272;52.426;17.100;2023-07-31T07:44:33;20.50;91.80
24091;DHT22;12272;52.426;17.100;2023-07-31T07:49:35;20.70;92.50
24091;DHT22;12272;52.426;17.100;2023-07-31T07:54:38;20.80;92.80
24091;DHT22;12272;52.426;17.100;2023-07-31T07:59:41;20.90;92.10
24091;DHT22;12272;52.426;17.100;2023-07-31T08:04:44;20.80;92.10
24091;DHT22;12272;52.426;17.100;2023-07-31T08:09:47;20.70;89.40
24091;DHT22;12272;52.426;17.100;2023-07-31T08:14:49;20.70;87.60
24091;DHT22;12272;52.426;17.100;2023-07-31T08:19:54;20.60;89.30
24091;DHT22;12272;52.426;17.100;2023-07-31T08:24:57;20.70;86.20
24091;DHT22;12272;52.426;17.100;2023-07-31T08:29:59;20.80;85.30
24091;DHT22;12272;52.426;17.100;2023-07-31T08:35:02;20.80;86.80
24091;DHT22;12272;52.426;17.100;2023-07-31T08:40:05;20.90;83.50
24091;DHT22;12272;52.426;17.100;2023-07-31T08:45:09;20.80;89.20
24091;DHT22;12272;52.426;17.100;2023-07-31T08:50:14;20.90;83.50
24091;DHT22;12272;52.426;17.100;2023-07-31T08:55:16;21.00;84.40
24091;DHT22;12272;52.426;17.100;2023-07-31T09:00:20;21.00;85.20
24091;DHT22;12272;52.426;17.100;2023-07-31T09:05:23;21.00;83.20
24091;DHT22;12272;52.426;17.100;2023-07-31T09:10:28;21.10;88.60
24091;DHT22;12272;52.426;17.100;2023-07-31T09:15:30;21.10;85.60
24091;DHT22;12272;52.426;17.100;2023-07-31T09:20:39;21.20;84.80
24091;DHT22;12272;52.426;17.100;2023-07-31T09:25:46;21.30;81.00
24091;DHT22;12272;52.426;17.100;2023-07-31T09:30:51;21.40;79.30
24091;DHT22;12272;52.426;17.100;2023-07-31T09:35:53;21.40;84.50
24091;DHT22;12272;52.426;17.100;2023-07-31T09:40:58;21.20;84.10
24091;DHT22;12272;52.426;17.100;2023-07-31T09:46:01;20.90;88.20
24091;DHT22;12272;52.426;17.100;2023-07-31T09:51:05;20.70;86.50
24091;DHT22;12272;52.426;17.100;2023-07-31T09:56:07;20.50;90.00
24091;DHT22;12272;52.426;17.100;2023-07-31T10:01:10;20.40;91.60
24091;DHT22;12272;52.426;17.100;2023-07-31T10:06:14;20.00;93.50
24091;DHT22;12272;52.426;17.100;2023-07-31T10:11:18;19.90;95.40
24091;DHT22;12272;52.426;17.100;2023-07-31T10:16:21;19.70;96.00
24091;DHT22;12272;52.426;17.100;2023-07-31T10:21:24;19.80;93.70
24091;DHT22;12272;52.426;17.100;2023-07-31T10:26:27;19.70;94.80
24091;DHT22;12272;52.426;17.100;2023-07-31T10:31:30;19.70;97.30
24091;DHT22;12272;52.426;17.100;2023-07-31T10:36:33;19.80;98.00
24091;DHT22;12272;52.426;17.100;2023-07-31T10:41:36;19.90;99.90
24091;DHT22;12272;52.426;17.100;2023-07-31T10:46:38;19.80;98.30
24091;DHT22;12272;52.426;17.100;2023-07-31T10:51:42;19.70;97.70
24091;DHT22;12272;52.426;17.100;2023-07-31T10:56:45;19.60;98.60
24091;DHT22;12272;52.426;17.100;2023-07-31T11:01:56;19.40;99.60
24091;DHT22;12272;52.426;17.100;2023-07-31T11:07:04;19.40;99.90
24091;DHT22;12272;52.426;17.100;2023-07-31T11:12:10;19.30;99.90
24091;DHT22;12272;52.426;17.100;2023-07-31T11:17:14;19.60;99.90
24091;DHT22;12272;52.426;17.100;2023-07-31T11:22:17;20.10;99.60
24091;DHT22;12272;52.426;17.100;2023-07-31T11:27:20;20.40;99.60
24091;DHT22;12272;52.426;17.100;2023-07-31T11:32:23;20.20;99.10
24091;DHT22;12272;52.426;17.100;2023-07-31T11:37:39;20.20;99.20
24091;DHT22;12272;52.426;17.100;2023-07-31T11:42:41;20.30;98.80
24091;DHT22;12272;52.426;17.100;2023-07-31T11:47:44;20.30;99.90
24091;DHT22;12272;52.426;17.100;2023-07-31T11:52:49;20.40;99.90
24091;DHT22;12272;52.426;17.100;2023-07-31T11:57:55;20.70;96.60
24091;DHT22;12272;52.426;17.100;2023-07-31T12:02:59;21.00;94.30
24091;DHT22;12272;52.426;17.100;2023-07-31T12:08:09;21.00;96.50
24091;DHT22;12272;52.426;17.100;2023-07-31T12:13:24;20.70;96.90
24091;DHT22;12272;52.426;17.100;2023-07-31T12:18:30;20.40;95.90
24091;DHT22;12272;52.426;17.100;2023-07-31T12:23:33;20.30;95.60
24091;DHT22;12272;52.426;17.100;2023-07-31T12:28:47;20.30;95.90
24091;DHT22;12272;52.426;17.100;2023-07-31T12:33:51;20.20;94.00
24091;DHT22;12272;52.426;17.100;2023-07-31T12:38:54;20.20;92.70
24091;DHT22;12272;52.426;17.100;2023-07-31T12:43:59;20.30;92.60
24091;DHT22;12272;52.426;17.100;2023-07-31T12:49:02;20.50;94.20
24091;DHT22;12272;52.426;17.100;2023-07-31T12:54:05;20.90;92.90
24091;DHT22;12272;52.426;17.100;2023-07-31T12:59:08;20.90;94.60
24091;DHT22;12272;52.426;17.100;2023-07-31T13:04:11;20.80;91.10
24091;DHT22;12272;52.426;17.100;2023-07-31T13:09:13;20.80;92.50
24091;DHT22;12272;52.426;17.100;2023-07-31T13:14:16;21.10;93.40
24091;DHT22;12272;52.426;17.100;2023-07-31T13:19:19;21.10;91.20
24091;DHT22;12272;52.426;17.100;2023-07-31T13:24:21;21.30;90.00
24091;DHT22;12272;52.426;17.100;2023-07-31T13:29:24;21.50;91.50
24091;DHT22;12272;52.426;17.100;2023-07-31T13:34:27;21.50;84.70
24091;DHT22;12272;52.426;17.100;2023-07-31T13:39:29;21.30;85.10
24091;DHT22;12272;52.426;17.100;2023-07-31T13:44:32;21.10;93.10
24091;DHT22;12272;52.426;17.100;2023-07-31T13:49:36;20.80;92.60
24091;DHT22;12272;52.426;17.100;2023-07-31T13:54:39;20.70;93.80
24091;DHT22;12272;52.426;17.100;2023-07-31T13:59:41;20.60;94.00
24091;DHT22;12272;52.426;17.100;2023-07-31T14:04:44;20.40;97.40
24091;DHT22;12272;52.426;17.100;2023-07-31T14:09:47;20.10;98.80
24091;DHT22;12272;52.426;17.100;2023-07-31T14:14:49;20.00;98.80
24091;DHT22;12272;52.426;17.100;2023-07-31T14:19:52;20.00;98.50
24091;DHT22;12272;52.426;17.100;2023-07-31T14:24:54;20.20;97.90
24091;DHT22;12272;52.426;17.100;2023-07-31T14:29:57;20.70;96.30
24091;DHT22;12272;52.426;17.100;2023-07-31T14:35:00;21.10;95.80
24091;DHT22;12272;52.426;17.100;2023-07-31T14:40:02;21.50;90.80
24091;DHT22;12272;52.426;17.100;2023-07-31T14:45:06;21.80;91.30
24091;DHT22;12272;52.426;17.100;2023-07-31T14:50:09;22.00;90.20
24091;DHT22;12272;52.426;17.100;2023-07-31T14:55:12;21.90;90.10
24091;DHT22;12272;52.426;17.100;2023-07-31T15:00:14;22.00;90.00
24091;DHT22;12272;52.426;17.100;2023-07-31T15:05:17;22.20;82.20
24091;DHT22;12272;52.426;17.100;2023-07-31T15:10:19;22.40;88.90
24091;DHT22;12272;52.426;17.100;2023-07-31T15:15:22;22.40;88.30
24091;DHT22;12272;52.426;17.100;2023-07-31T15:20:26;22.40;78.80
24091;DHT22;12272;52.426;17.100;2023-07-31T15:25:28;22.40;82.10
24091;DHT22;12272;52.426;17.100;2023-07-31T15:30:31;22.30;85.60
24091;DHT22;12272;52.426;17.100;2023-07-31T15:35:34;22.20;81.90
24091;DHT22;12272;52.426;17.100;2023-07-31T15:40:38;22.00;87.60
24091;DHT22;12272;52.426;17.100;2023-07-31T15:45:40;21.90;90.70
24091;DHT22;12272;52.426;17.100;2023-07-31T15:50:43;21.90;91.20
24091;DHT22;12272;52.426;17.100;2023-07-31T15:55:46;21.80;84.20
24091;DHT22;12272;52.426;17.100;2023-07-31T16:00:48;21.90;82.00
24091;DHT22;12272;52.426;17.100;2023-07-31T16:05:51;22.00;84.70
24091;DHT22;12272;52.426;17.100;2023-07-31T16:10:54;22.10;79.20
24091;DHT22;12272;52.426;17.100;2023-07-31T16:15:58;22.10;77.90
24091;DHT22;12272;52.426;17.100;2023-07-31T16:21:00;22.10;73.80
24091;DHT22;12272;52.426;17.100;2023-07-31T16:26:03;22.10;72.60
24091;DHT22;12272;52.426;17.100;2023-07-31T16:31:06;22.10;72.50
24091;DHT22;12272;52.426;17.100;2023-07-31T16:36:08;22.10;76.70
24091;DHT22;12272;52.426;17.100;2023-07-31T16:41:11;21.90;73.90
24091;DHT22;12272;52.426;17.100;2023-07-31T16:46:13;21.70;76.80
24091;DHT22;12272;52.426;17.100;2023-07-31T16:51:16;21.70;74.20
24091;DHT22;12272;52.426;17.100;2023-07-31T16:56:19;21.50;75.00
24091;DHT22;12272;52.426;17.100;2023-07-31T17:01:21;21.40;81.70
24091;DHT22;12272;52.426;17.100;2023-07-31T17:06:27;21.30;78.80
24091;DHT22;12272;52.426;17.100;2023-07-31T17:11:30;21.20;78.70
24091;DHT22;12272;52.426;17.100;2023-07-31T17:16:35;21.20;84.30
24091;DHT22;12272;52.426;17.100;2023-07-31T17:21:37;21.20;83.00
24091;DHT22;12272;52.426;17.100;2023-07-31T17:26:41;21.20;84.50
24091;DHT22;12272;52.426;17.100;2023-07-31T17:31:43;21.10;87.00
24091;DHT22;12272;52.426;17.100;2023-07-31T17:36:46;21.10;85.70
24091;DHT22;12272;52.426;17.100;2023-07-31T17:41:48;21.00;87.00
24091;DHT22;12272;52.426;17.100;2023-07-31T17:46:51;20.90;86.00
24091;DHT22;12272;52.426;17.100;2023-07-31T17:51:54;20.80;87.10
24091;DHT22;12272;52.426;17.100;2023-07-31T17:56:56;20.80;89.10
24091;DHT22;12272;52.426;17.100;2023-07-31T18:01:59;20.70;91.00
24091;DHT22;12272;52.426;17.100;2023-07-31T18:07:01;20.60;91.70
24091;DHT22;12272;52.426;17.100;2023-07-31T18:12:06;20.50;92.70
24091;DHT22;12272;52.426;17.100;2023-07-31T18:17:09;20.30;93.00
24091;DHT22;12272;52.426;17.100;2023-07-31T18:22:11;20.20;92.80
24091;DHT22;12272;52.426;17.100;2023-07-31T18:27:14;20.10;93.20
24091;DHT22;12272;52.426;17.100;2023-07-31T18:32:16;20.10;92.90
24091;DHT22;12272;52.426;17.100;2023-07-31T18:37:19;19.90;93.70
24091;DHT22;12272;52.426;17.100;2023-07-31T18:42:21;19.80;93.80
24091;DHT22;12272;52.426;17.100;2023-07-31T18:47:24;19.60;94.80
24091;DHT22;12272;52.426;17.100;2023-07-31T18:52:27;19.50;95.40
24091;DHT22;12272;52.426;17.100;2023-07-31T18:57:29;19.30;95.90
24091;DHT22;12272;52.426;17.100;2023-07-31T19:02:32;19.20;96.10
24091;DHT22;12272;52.426;17.100;2023-07-31T19:07:34;19.10;96.70
24091;DHT22;12272;52.426;17.100;2023-07-31T19:12:37;19.00;97.00
24091;DHT22;12272;52.426;17.100;2023-07-31T19:17:39;18.90;97.50
24091;DHT22;12272;52.426;17.100;2023-07-31T19:22:43;18.90;98.40
24091;DHT22;12272;52.426;17.100;2023-07-31T19:27:45;18.80;98.60
24091;DHT22;12272;52.426;17.100;2023-07-31T19:32:52;18.80;99.00
24091;DHT22;12272;52.426;17.100;2023-07-31T19:37:55;18.70;99.30
24091;DHT22;12272;52.426;17.100;2023-07-31T19:42:58;18.80;99.90
24091;DHT22;12272;52.426;17.100;2023-07-31T19:48:02;18.80;99.90
24091;DHT22;12272;52.426;17.100;2023-07-31T19:53:04;18.80;99.40
24091;DHT22;12272;52.426;17.100;2023-07-31T19:58:07;18.90;98.80
24091;DHT22;12272;52.426;17.100;2023-07-31T20:03:09;18.90;98.70
24091;DHT22;12272;52.426;17.100;2023-07-31T20:08:12;19.00;98.40
24091;DHT22;12272;52.426;17.100;2023-07-31T20:13:14;19.00;98.50
24091;DHT22;12272;52.426;17.100;2023-07-31T20:18:17;19.00;98.60
24091;DHT22;12272;52.426;17.100;2023-07-31T20:23:22;19.00;99.00
24091;DHT22;12272;52.426;17.100;2023-07-31T20:28:44;19.00;99.10
24091;DHT22;12272;52.426;17.100;2023-07-31T20:33:47;19.00;99.40
24091;DHT22;12272;52.426;17.100;2023-07-31T20:38:49;18.90;99.90
24091;DHT22;12272;52.426;17.100;2023-07-31T20:43:52;18.90;99.80
24091;DHT22;12272;52.426;17.100;2023-07-31T20:48:54;18.90;99.90
24091;DHT22;12272;52.426;17.100;2023-07-31T20:53:57;18.90;99.70
24091;DHT22;12272;52.426;17.100;2023-07-31T20:58:59;18.90;99.90
24091;DHT22;12272;52.426;17.100;2023-07-31T21:04:02;19.00;99.90
24091;DHT22;12272;52.426;17.100;2023-07-31T21:09:07;19.00;99.70
24091;DHT22;12272;52.426;17.100;2023-07-31T21:14:10;19.00;99.90
24091;DHT22;12272;52.426;17.100;2023-07-31T21:19:12;19.00;99.50
24091;DHT22;12272;52.426;17.100;2023-07-31T21:24:16;19.00;99.90
24091;DHT22;12272;52.426;17.100;2023-07-31T21:29:18;19.00;99.90
24091;DHT22;12272;52.426;17.100;2023-07-31T21:34:21;19.00;99.70
24091;DHT22;12272;52.426;17.100;2023-07-31T21:39:24;19.00;99.70
24091;DHT22;12272;52.426;17.100;2023-07-31T21:44:26;19.10;99.40
24091;DHT22;12272;52.426;17.100;2023-07-31T21:49:28;19.10;99.10
24091;DHT22;12272;52.426;17.100;2023-07-31T21:54:31;19.10;98.60
24091;DHT22;12272;52.426;17.100;2023-07-31T21:59:34;19.20;97.70
24091;DHT22;12272;52.426;17.100;2023-07-31T22:04:38;19.30;97.10
24091;DHT22;12272;52.426;17.100;2023-07-31T22:09:44;19.40;96.70
24091;DHT22;12272;52.426;17.100;2023-07-31T22:14:46;19.40;94.90
24091;DHT22;12272;52.426;17.100;2023-07-31T22:19:49;19.50;95.30
24091;DHT22;12272;52.426;17.100;2023-07-31T22:24:51;19.40;96.00
24091;DHT22;12272;52.426;17.100;2023-07-31T22:29:54;19.40;96.20
24091;DHT22;12272;52.426;17.100;2023-07-31T22:34:56;19.30;96.10
24091;DHT22;12272;52.426;17.100;2023-07-31T22:39:59;19.40;95.80
24091;DHT22;12272;52.426;17.100;2023-07-31T22:45:01;19.30;96.30
24091;DHT22;12272;52.426;17.100;2023-07-31T22:50:04;19.30;97.70
24091;DHT22;12272;52.426;17.100;2023-07-31T22:55:07;19.20;98.60
24091;DHT22;12272;52.426;17.100;2023-07-31T23:00:11;19.10;98.60
24091;DHT22;12272;52.426;17.100;2023-07-31T23:05:13;19.10;98.60
24091;DHT22;12272;52.426;17.100;2023-07-31T23:10:17;19.10;99.00
24091;DHT22;12272;52.426;17.100;2023-07-31T23:15:20;19.00;99.50
24091;DHT22;12272;52.426;17.100;2023-07-31T23:20:22;19.00;99.50
24091;DHT22;12272;52.426;17.100;2023-07-31T23:25:25;19.00;99.90
24091;DHT22;12272;52.426;17.100;2023-07-31T23:30:27;19.00;99.70
24091;DHT22;12272;52.426;17.100;2023-07-31T23:35:30;19.00;99.50
24091;DHT22;12272;52.426;17.100;2023-07-31T23:40:33;19.00;99.60
24091;DHT22;12272;52.426;17.100;2023-07-31T23:45:36;18.90;99.90
24091;DHT22;12272;52.426;17.100;2023-07-31T23:50:38;18.90;99.70
24091;DHT22;12272;52.426;17.100;2023-07-31T23:55:41;18.90;99.90
